HOURLY OBS INDEX

038

Channel Country

BIRDSVILLE AIRPORT

Site: 038026
Alt: 46.6m
0.0km WNW of BIRDSVILLE


  Time     Wind        Temp  DP   Baro     Rain since   Rain past  Vis(m), Cloud(base in m), Weather
  local        km/h                         9am  last   hr   10m    
Thu 09:00    S 13/ 17   7.2 -2.8  1026.0    0.0   0.0   0.0   0.0   ----- 
Thu 09:30  SSE 17/ 20   8.9 -2.1  1026.2    0.0   0.0   0.0   0.0   ----- 
Thu 10:00  SSE 17/ 20  11.2 -0.6  1026.3    0.0   0.0   0.0   0.0   ----- 
Thu 10:30  SSE 20/ 26  13.1  0.5  1026.2    0.0   0.0   0.0   0.0   ----- 
Thu 11:00  SSE 22/ 28  15.4  1.9  1025.9    0.0   0.0   0.0   0.0   ----- 
Thu 11:30  SSE 26/ 32  15.9  1.6  1025.7    0.0   0.0   0.0   0.0   ----- 
Thu 12:00  SSE 24/ 32  16.7  1.2  1025.2    0.0   0.0   0.0   0.0   ----- 
Thu 12:30  SSE 22/ 33  17.6  1.6  1024.8    0.0   0.0   0.0   0.0   ----- 
Thu 13:00  SSE 20/ 32  18.1  1.6  1024.3    0.0   0.0   0.0   0.0   ----- 
Thu 13:30  SSE 20/ 26  18.4  1.9  1023.7    0.0   0.0   0.0   0.0   ----- 
Thu 14:00    S 20/ 30  19.4  2.3  1023.2    0.0   0.0   0.0   0.0   ----- 

WINDORAH AIRPORT

Site: 038076
Alt: 132.2m
2km NNE of WINDORAH


  Time     Wind        Temp  DP   Baro     Rain since   Rain past  Vis(m), Cloud(base in m), Weather
  local        km/h                         9am  last   hr   10m    
Thu 09:00  ESE  7/ 11  10.2 -1.2  1024.4    0.0   0.0   0.0   0.0   10000 
Thu 09:30    E  9/ 13  12.4 -0.1  1024.6    0.0   0.0   0.0   0.0   10000 
Thu 10:00    E 11/ 15  15.1  0.5  1024.6    0.0   0.0   0.0   0.0   10000 
Thu 10:30  ENE 15/ 20  16.7  0.4  1024.5    0.0   0.0   0.0   0.0   10000 
Thu 11:00  ENE 11/ 17  17.8  0.5  1024.1    0.0   0.0   0.0   0.0   10000 
Thu 11:30  ENE  9/ 13  19.2  0.3  1023.7    0.0   0.0   0.0   0.0   10000 
Thu 12:00   NE  6/ 11  20.3  0.2  1023.4    0.0   0.0   0.0   0.0   10000 
Thu 12:30  ESE 11/ 19  20.7 -3.7  1022.9    0.0   0.0   0.0   0.0   10000 
Thu 13:00  ESE  9/ 15  21.1 -2.7  1022.3    0.0   0.0   0.0   0.0   10000 
Thu 13:30   SE 13/ 24  21.6 -3.0  1022.0    0.0   0.0   0.0   0.0   10000 
Thu 14:00   SE 17/ 26  21.9 -4.2  1021.5    0.0   0.0   0.0   0.0   10000